createdAt,value
2022-10-19T00:01:06.744Z,24.35
2022-10-19T00:02:08.521Z,27.23
2022-10-19T00:03:10.242Z,20.77
2022-10-19T00:04:11.910Z,29.55
2022-10-19T00:05:13.581Z,22.20
2022-10-19T00:06:38.582Z,19.52
2022-10-19T00:07:40.279Z,18.35
2022-10-19T00:08:42.783Z,17.65
2022-10-19T00:09:44.626Z,19.70
2022-10-19T00:10:46.362Z,17.38
2022-10-19T00:11:49.547Z,24.20
2022-10-19T00:12:51.214Z,17.37
2022-10-19T00:13:54.693Z,17.45
2022-10-19T00:14:56.532Z,15.38
2022-10-19T00:15:58.190Z,25.65
2022-10-19T00:16:59.879Z,15.10
2022-10-19T00:18:01.503Z,19.33
2022-10-19T00:19:06.497Z,20.15
2022-10-19T00:20:08.817Z,23.98
2022-10-19T00:21:13.331Z,19.20
2022-10-19T00:22:15.175Z,15.95
2022-10-19T00:23:16.842Z,15.83
2022-10-19T00:24:18.803Z,17.10
2022-10-19T00:25:20.472Z,22.20
2022-10-19T00:26:22.150Z,17.77
2022-10-19T00:27:23.829Z,19.83
2022-10-19T00:28:25.602Z,19.67
2022-10-19T00:29:27.277Z,17.85
2022-10-19T00:30:28.939Z,27.00
2022-10-19T00:31:30.609Z,17.75
2022-10-19T00:32:32.565Z,18.70
2022-10-19T00:33:34.783Z,17.70
2022-10-19T00:34:36.462Z,16.63
2022-10-19T00:35:41.508Z,16.25
2022-10-19T00:36:43.339Z,22.00
2022-10-19T00:37:45.040Z,17.83
2022-10-19T00:38:47.539Z,20.08
2022-10-19T00:40:55.864Z,16.27
2022-10-19T00:41:57.521Z,19.10
2022-10-19T00:42:59.190Z,20.42
2022-10-19T00:44:26.564Z,19.33
2022-10-19T00:45:28.213Z,21.05
2022-10-19T00:46:32.659Z,21.73
2022-10-19T00:47:34.610Z,17.52
2022-10-19T00:48:36.322Z,21.75
2022-10-19T00:49:41.614Z,18.58
2022-10-19T00:50:45.104Z,23.63
2022-10-19T00:51:50.175Z,23.95
2022-10-19T00:52:51.816Z,16.38
2022-10-19T00:53:54.338Z,18.42
2022-10-19T00:54:57.917Z,20.83
2022-10-19T00:56:05.900Z,23.98
2022-10-19T00:57:08.631Z,23.60
2022-10-19T00:58:10.409Z,17.23
2022-10-19T00:59:14.650Z,19.00
2022-10-19T01:00:16.373Z,17.77
2022-10-19T01:01:22.141Z,20.02
2022-10-19T01:02:23.897Z,17.55
2022-10-19T01:03:25.830Z,16.90
2022-10-19T01:04:29.326Z,20.17
2022-10-19T01:05:31.982Z,22.93
2022-10-19T01:06:35.255Z,16.70
2022-10-19T01:07:37.228Z,18.83
2022-10-19T01:08:39.211Z,14.63
2022-10-19T01:09:40.864Z,16.98
2022-10-19T01:11:03.846Z,16.13
2022-10-19T01:12:35.323Z,17.23
2022-10-19T01:14:14.597Z,18.00
2022-10-19T01:15:33.356Z,21.65
2022-10-19T01:17:11.059Z,19.38
2022-10-19T01:18:24.976Z,17.23
2022-10-19T01:19:48.175Z,16.88
2022-10-19T01:21:09.424Z,18.95
2022-10-19T01:22:11.042Z,14.43
2022-10-19T01:23:27.485Z,15.32
2022-10-19T01:24:40.723Z,15.52
2022-10-19T01:25:48.335Z,17.75
2022-10-19T01:27:14.745Z,17.08
2022-10-19T01:29:00.962Z,12.73
2022-10-19T01:30:12.423Z,13.32
2022-10-19T01:31:37.593Z,12.43
2022-10-19T01:32:58.041Z,13.40
2022-10-19T01:34:10.797Z,21.38
2022-10-19T01:35:55.244Z,13.68
2022-10-19T01:37:09.977Z,19.48
2022-10-19T01:38:36.150Z,16.17
2022-10-19T01:39:40.813Z,13.95
2022-10-19T01:40:56.001Z,12.50
2022-10-19T01:42:03.637Z,13.10
2022-10-19T01:43:47.052Z,11.02
2022-10-19T01:45:02.460Z,14.07
2022-10-19T01:46:18.299Z,15.68
2022-10-19T01:47:42.365Z,12.35
2022-10-19T01:48:58.811Z,13.00
2022-10-19T01:50:10.297Z,9.65
2022-10-19T01:51:20.897Z,12.90
2022-10-19T01:52:24.043Z,9.38
2022-10-19T01:53:29.633Z,13.88
2022-10-19T01:54:37.480Z,10.75
2022-10-19T01:55:42.878Z,17.92
2022-10-19T01:56:47.655Z,9.60
2022-10-19T01:57:55.599Z,11.88
2022-10-19T01:59:00.175Z,15.68
2022-10-19T02:00:07.535Z,13.10
2022-10-19T02:02:19.291Z,14.73
2022-10-19T02:03:22.871Z,15.18
2022-10-19T02:04:25.746Z,11.15
2022-10-19T02:05:32.134Z,7.28
2022-10-19T02:06:33.878Z,14.00
2022-10-19T02:07:37.832Z,12.27
2022-10-19T02:08:46.826Z,11.70
2022-10-19T02:09:48.924Z,13.13
2022-10-19T02:10:51.238Z,9.27
2022-10-19T02:11:57.325Z,12.45
2022-10-19T02:13:00.400Z,12.88
2022-10-19T02:14:07.871Z,14.38
2022-10-19T02:15:14.260Z,12.93
2022-10-19T02:16:23.668Z,19.70
2022-10-19T02:17:30.010Z,12.68
2022-10-19T02:18:36.462Z,18.87
2022-10-19T02:19:38.537Z,14.35
2022-10-19T02:20:40.199Z,12.60
2022-10-19T02:21:42.248Z,16.40
2022-10-19T02:22:44.695Z,13.05
2022-10-19T02:23:48.336Z,10.63
2022-10-19T02:24:52.192Z,13.57
2022-10-19T02:25:55.005Z,10.77
2022-10-19T02:26:57.348Z,11.98
2022-10-19T02:27:59.927Z,12.05
2022-10-19T02:29:01.669Z,16.83
2022-10-19T02:30:04.074Z,18.40
2022-10-19T02:31:06.075Z,11.30
2022-10-19T02:32:08.831Z,11.80
2022-10-19T02:33:12.366Z,12.00
2022-10-19T02:34:14.316Z,15.43
2022-10-19T02:35:16.141Z,12.43
2022-10-19T02:36:18.568Z,18.15
2022-10-19T02:37:22.162Z,21.33
2022-10-19T02:38:27.177Z,14.57
2022-10-19T02:39:29.225Z,8.83
2022-10-19T02:40:36.101Z,14.57
2022-10-19T02:41:45.882Z,11.85
2022-10-19T02:43:02.124Z,19.83
2022-10-19T02:44:19.306Z,12.90
2022-10-19T02:45:27.557Z,12.30
2022-10-19T02:46:32.154Z,15.77
2022-10-19T02:47:49.376Z,18.77
2022-10-19T02:48:51.808Z,12.63
2022-10-19T02:49:54.147Z,15.57
2022-10-19T02:50:55.846Z,13.47
2022-10-19T02:52:10.090Z,15.10
2022-10-19T02:53:11.763Z,12.57
2022-10-19T02:54:13.413Z,14.30
2022-10-19T02:55:15.277Z,14.70
2022-10-19T02:56:16.955Z,12.40
2022-10-19T02:57:21.867Z,19.02
2022-10-19T02:58:23.635Z,11.95
2022-10-19T02:59:25.751Z,9.10
2022-10-19T03:00:27.394Z,11.60
2022-10-19T03:01:29.100Z,11.60
2022-10-19T03:02:30.753Z,14.85
2022-10-19T03:03:32.419Z,11.65
2022-10-19T03:04:34.268Z,12.90
2022-10-19T03:05:35.987Z,19.23
2022-10-19T03:06:37.669Z,13.35
2022-10-19T03:07:39.295Z,18.85
2022-10-19T03:08:40.949Z,13.75
2022-10-19T03:09:43.718Z,12.45
2022-10-19T03:10:45.353Z,12.77
2022-10-19T03:11:47.055Z,10.50
2022-10-19T03:12:48.717Z,16.08
2022-10-19T03:13:50.402Z,14.25
2022-10-19T03:14:52.108Z,17.15
2022-10-19T03:15:53.747Z,12.73
2022-10-19T03:16:55.439Z,16.65
2022-10-19T03:17:57.240Z,18.60
2022-10-19T03:18:58.930Z,13.75
2022-10-19T03:20:00.589Z,12.40
2022-10-19T03:21:04.152Z,13.95
2022-10-19T03:22:05.867Z,16.13
2022-10-19T03:23:07.617Z,16.63
2022-10-19T03:24:09.281Z,14.57
2022-10-19T03:25:10.969Z,15.80
2022-10-19T03:26:17.031Z,20.20
2022-10-19T03:27:18.774Z,17.83
2022-10-19T03:28:20.445Z,15.38
2022-10-19T03:29:22.113Z,14.07
2022-10-19T03:30:23.806Z,15.10
2022-10-19T03:31:27.088Z,15.00
2022-10-19T03:32:28.741Z,15.30
2022-10-19T03:33:30.407Z,11.10
2022-10-19T03:34:32.138Z,12.25
2022-10-19T03:35:33.799Z,15.98
2022-10-19T03:36:40.319Z,12.00
2022-10-19T03:37:41.967Z,11.68
2022-10-19T03:38:43.682Z,11.95
2022-10-19T03:39:45.384Z,14.27
2022-10-19T03:40:47.204Z,14.68
2022-10-19T03:41:48.823Z,13.73
2022-10-19T03:42:50.447Z,15.33
2022-10-19T03:43:52.433Z,24.48
2022-10-19T03:44:54.115Z,18.45
2022-10-19T03:45:55.783Z,12.48
2022-10-19T03:46:57.424Z,13.65
2022-10-19T03:47:59.067Z,20.10
2022-10-19T03:49:00.866Z,14.27
2022-10-19T03:50:02.501Z,17.45
2022-10-19T03:51:08.273Z,13.55
2022-10-19T03:52:10.221Z,14.07
2022-10-19T03:53:11.985Z,13.70
2022-10-19T03:54:15.561Z,10.82
2022-10-19T03:55:17.546Z,17.15
2022-10-19T03:56:21.771Z,15.15
2022-10-19T03:57:23.507Z,14.57
2022-10-19T03:58:25.143Z,15.23
2022-10-19T03:59:26.840Z,12.70
2022-10-19T04:00:28.524Z,17.95
2022-10-19T04:01:33.237Z,14.85
2022-10-19T04:02:34.912Z,10.80
2022-10-19T04:03:37.018Z,13.00
2022-10-19T04:04:38.740Z,13.45
2022-10-19T04:05:40.377Z,22.50
2022-10-19T04:06:44.304Z,14.85
2022-10-19T04:07:45.951Z,13.90
2022-10-19T04:08:49.050Z,22.63
2022-10-19T04:09:50.709Z,20.52
2022-10-19T04:10:52.469Z,20.45
2022-10-19T04:11:54.248Z,18.10
2022-10-19T04:12:55.905Z,15.18
2022-10-19T04:13:58.710Z,22.83
2022-10-19T04:15:00.475Z,11.43
2022-10-19T04:16:02.257Z,14.75
2022-10-19T04:17:04.544Z,14.23
2022-10-19T04:18:06.218Z,16.98
2022-10-19T04:19:08.445Z,19.50
2022-10-19T04:20:10.496Z,19.60
2022-10-19T04:21:27.567Z,15.35
2022-10-19T04:22:29.220Z,15.20
2022-10-19T04:23:34.313Z,22.17
2022-10-19T04:24:35.984Z,15.83
2022-10-19T04:25:37.712Z,17.50
2022-10-19T04:26:43.642Z,16.55
2022-10-19T04:27:45.495Z,18.80
2022-10-19T04:28:47.276Z,16.95
2022-10-19T04:29:48.953Z,14.68
2022-10-19T04:30:50.610Z,20.15
2022-10-19T04:31:52.861Z,14.27
2022-10-19T04:32:54.492Z,17.55
2022-10-19T04:33:56.776Z,16.42
2022-10-19T04:34:58.427Z,18.30
2022-10-19T04:36:01.714Z,14.93
2022-10-19T04:37:03.545Z,13.98
2022-10-19T04:38:05.178Z,13.32
2022-10-19T04:39:07.509Z,18.02
2022-10-19T04:40:14.843Z,18.75
2022-10-19T04:41:19.657Z,19.58
2022-10-19T04:42:21.303Z,17.02
2022-10-19T04:43:23.446Z,17.67
2022-10-19T04:44:25.128Z,19.50
2022-10-19T04:45:26.809Z,16.73
2022-10-19T04:46:29.904Z,12.80
2022-10-19T04:47:31.845Z,19.35
2022-10-19T04:48:35.248Z,17.63
2022-10-19T04:49:36.948Z,16.33
2022-10-19T04:50:38.665Z,21.52
2022-10-19T04:51:40.314Z,20.13
2022-10-19T04:52:44.981Z,13.43
2022-10-19T04:53:47.611Z,20.65
2022-10-19T04:54:49.303Z,14.27
2022-10-19T04:55:51.098Z,21.80
2022-10-19T04:56:53.870Z,18.60
2022-10-19T04:57:55.626Z,19.65
2022-10-19T04:58:58.976Z,20.88
2022-10-19T05:00:00.647Z,17.10
2022-10-19T05:01:29.855Z,14.27
2022-10-19T05:02:31.717Z,17.10
2022-10-19T05:03:33.346Z,18.33
2022-10-19T05:04:34.970Z,21.67
2022-10-19T05:05:36.629Z,19.05
2022-10-19T05:06:38.416Z,18.20
2022-10-19T05:07:40.764Z,20.92
2022-10-19T05:08:42.434Z,22.65
2022-10-19T05:09:44.098Z,18.35
2022-10-19T05:10:47.722Z,14.90
2022-10-19T05:11:50.761Z,17.08
2022-10-19T05:12:52.643Z,20.58
2022-10-19T05:13:54.489Z,19.52
2022-10-19T05:14:56.191Z,22.63
2022-10-19T05:16:02.804Z,21.40
2022-10-19T05:17:04.498Z,17.00
2022-10-19T05:18:06.148Z,15.27
2022-10-19T05:19:07.841Z,18.92
2022-10-19T05:20:11.312Z,14.95
2022-10-19T05:21:14.165Z,18.38
2022-10-19T05:22:15.809Z,23.67
2022-10-19T05:23:17.699Z,21.52
2022-10-19T05:24:19.323Z,20.85
2022-10-19T05:25:21.004Z,14.25
2022-10-19T05:26:24.946Z,21.42
2022-10-19T05:27:26.708Z,15.93
2022-10-19T05:28:28.801Z,18.42
2022-10-19T05:29:30.474Z,16.55
2022-10-19T05:30:32.691Z,22.38
2022-10-19T05:31:34.785Z,13.95
2022-10-19T05:32:36.474Z,16.38
2022-10-19T05:33:39.004Z,15.63
2022-10-19T05:34:40.694Z,22.17
2022-10-19T05:35:42.336Z,15.98
2022-10-19T05:36:43.970Z,15.40
2022-10-19T05:37:45.621Z,17.90
2022-10-19T05:38:50.308Z,14.10
2022-10-19T05:39:52.261Z,17.15
2022-10-19T05:40:53.945Z,20.02
2022-10-19T05:41:55.655Z,16.90
2022-10-19T05:42:57.342Z,16.92
2022-10-19T05:44:01.395Z,13.02
2022-10-19T05:45:03.624Z,20.35
2022-10-19T05:46:11.029Z,21.00
2022-10-19T05:47:12.692Z,13.40
2022-10-19T05:48:14.359Z,14.93
2022-10-19T05:49:18.038Z,15.75
2022-10-19T05:50:19.748Z,15.35
2022-10-19T05:51:22.626Z,19.92
2022-10-19T05:52:24.310Z,17.90
2022-10-19T05:53:26.190Z,16.35
2022-10-19T05:54:28.625Z,24.40
2022-10-19T05:55:35.194Z,15.52
2022-10-19T05:56:37.062Z,17.80
2022-10-19T05:57:39.134Z,17.77
2022-10-19T05:58:40.803Z,19.03
2022-10-19T05:59:42.468Z,12.77
2022-10-19T06:00:44.126Z,12.35
2022-10-19T06:01:47.040Z,17.45
2022-10-19T06:02:48.743Z,17.42
2022-10-19T06:03:55.033Z,14.70
2022-10-19T06:04:56.683Z,16.92
2022-10-19T06:05:58.494Z,12.32
2022-10-19T06:07:01.066Z,21.50
2022-10-19T06:08:02.709Z,17.02
2022-10-19T06:09:04.514Z,11.20
2022-10-19T06:10:06.686Z,8.93
2022-10-19T06:11:20.724Z,18.60
2022-10-19T06:12:24.937Z,13.55
2022-10-19T06:13:26.975Z,11.13
2022-10-19T06:14:28.669Z,9.43
2022-10-19T06:15:33.783Z,13.18
2022-10-19T06:16:35.970Z,15.35
2022-10-19T06:17:37.621Z,13.02
2022-10-19T06:18:40.254Z,11.52
2022-10-19T06:19:41.958Z,10.37
2022-10-19T06:20:43.629Z,17.90
2022-10-19T06:21:46.187Z,9.57
2022-10-19T06:22:48.160Z,10.50
2022-10-19T06:23:54.599Z,15.93
2022-10-19T06:24:56.699Z,11.32
2022-10-19T06:25:58.498Z,9.68
2022-10-19T06:27:00.175Z,9.63
2022-10-19T06:28:02.050Z,10.52
2022-10-19T06:29:04.345Z,14.48
2022-10-19T06:30:06.841Z,11.77
2022-10-19T06:31:09.404Z,7.00
2022-10-19T06:32:11.231Z,9.80
2022-10-19T06:33:12.895Z,9.85
2022-10-19T06:34:14.633Z,10.82
2022-10-19T06:35:16.472Z,5.82
2022-10-19T06:36:21.349Z,7.47
2022-10-19T06:37:23.051Z,7.30
2022-10-19T06:38:24.727Z,7.88
2022-10-19T06:39:26.397Z,11.02
2022-10-19T06:40:28.170Z,6.80
2022-10-19T06:41:31.297Z,6.50
2022-10-19T06:42:33.040Z,6.75
2022-10-19T06:43:35.541Z,9.48
2022-10-19T06:44:37.202Z,8.45
2022-10-19T06:45:39.003Z,8.35
2022-10-19T06:46:40.648Z,10.82
2022-10-19T06:47:42.359Z,11.45
2022-10-19T06:48:44.083Z,7.05
2022-10-19T06:49:45.770Z,10.70
2022-10-19T06:50:47.401Z,5.80
2022-10-19T06:51:49.036Z,11.15
2022-10-19T06:52:50.737Z,9.35
2022-10-19T06:53:56.514Z,5.60
2022-10-19T06:54:58.708Z,9.00
2022-10-19T06:56:02.389Z,9.32
2022-10-19T06:57:04.130Z,7.82
2022-10-19T06:58:05.795Z,11.73
2022-10-19T06:59:07.439Z,13.77
2022-10-19T07:00:09.770Z,13.75
2022-10-19T07:01:13.832Z,7.40
2022-10-19T07:02:16.225Z,12.15
2022-10-19T07:03:17.874Z,13.05
2022-10-19T07:04:19.498Z,7.55
2022-10-19T07:05:21.663Z,7.40
2022-10-19T07:06:23.967Z,6.57
2022-10-19T07:07:25.727Z,11.93
2022-10-19T07:08:29.533Z,8.05
2022-10-19T07:09:31.248Z,5.60
2022-10-19T07:10:32.953Z,9.02
2022-10-19T07:11:34.748Z,6.23
2022-10-19T07:12:36.408Z,8.88
2022-10-19T07:13:38.559Z,7.85
2022-10-19T07:14:40.265Z,9.68
2022-10-19T07:15:41.925Z,7.55
2022-10-19T07:16:43.600Z,7.93
2022-10-19T07:17:45.258Z,8.23
2022-10-19T07:18:47.232Z,11.65
2022-10-19T07:19:48.897Z,8.68
2022-10-19T07:20:55.507Z,8.27
2022-10-19T07:21:57.159Z,5.77
2022-10-19T07:22:58.850Z,15.15
2022-10-19T07:24:00.492Z,3.75
2022-10-19T07:25:02.161Z,8.40
2022-10-19T07:26:11.942Z,6.72
2022-10-19T07:27:14.252Z,6.47
2022-10-19T07:28:15.985Z,7.20
2022-10-19T07:29:17.819Z,8.38
2022-10-19T07:30:20.591Z,16.83
2022-10-19T07:31:24.433Z,13.57
2022-10-19T07:32:26.078Z,12.00
2022-10-19T07:33:27.972Z,10.05
2022-10-19T07:34:29.908Z,8.40
2022-10-19T07:35:31.578Z,6.82
2022-10-19T07:36:34.778Z,11.82
2022-10-19T07:37:36.688Z,14.20
2022-10-19T07:38:38.512Z,8.88
2022-10-19T07:39:40.145Z,6.65
2022-10-19T07:40:44.867Z,9.43
2022-10-19T07:41:49.197Z,11.20
2022-10-19T07:42:50.847Z,8.97
2022-10-19T07:43:53.369Z,7.95
2022-10-19T07:44:55.800Z,6.95
2022-10-19T07:45:59.352Z,10.68
2022-10-19T07:47:01.042Z,6.93
2022-10-19T07:48:02.694Z,12.23
2022-10-19T07:49:09.790Z,10.88
2022-10-19T07:50:11.441Z,10.23
2022-10-19T07:51:15.319Z,9.73
2022-10-19T07:52:17.000Z,6.05
2022-10-19T07:53:19.115Z,11.97
2022-10-19T07:54:21.473Z,5.88
2022-10-19T07:55:23.124Z,11.25
2022-10-19T07:56:27.623Z,4.53
2022-10-19T07:57:29.302Z,6.65
2022-10-19T07:58:31.451Z,5.05
2022-10-19T07:59:34.053Z,8.07
2022-10-19T08:00:35.765Z,9.95
2022-10-19T08:01:44.733Z,6.00
2022-10-19T08:02:57.867Z,8.73
2022-10-19T08:05:32.018Z,8.02
2022-10-19T08:06:33.952Z,8.73
2022-10-19T08:07:35.658Z,4.50
2022-10-19T08:08:37.652Z,8.98
2022-10-19T08:09:54.845Z,10.18
2022-10-19T08:10:56.916Z,9.18
2022-10-19T08:11:58.580Z,10.77
2022-10-19T08:13:00.230Z,11.57
2022-10-19T08:14:05.161Z,6.28
2022-10-19T08:15:07.302Z,9.67
2022-10-19T08:16:24.158Z,10.65
2022-10-19T08:17:25.829Z,6.45
2022-10-19T08:18:27.510Z,5.47
2022-10-19T08:19:29.292Z,11.95
2022-10-19T08:20:30.936Z,7.38
2022-10-19T08:21:33.279Z,8.50
2022-10-19T08:22:35.198Z,6.35
2022-10-19T08:23:37.053Z,8.10
2022-10-19T08:24:38.977Z,9.75
2022-10-19T08:25:40.627Z,5.57
2022-10-19T08:26:42.922Z,6.60
2022-10-19T08:27:44.615Z,4.05
2022-10-19T08:28:46.588Z,8.82
2022-10-19T08:29:48.351Z,11.07
2022-10-19T08:30:49.991Z,3.67
2022-10-19T08:31:52.999Z,9.43
2022-10-19T08:32:54.690Z,10.45
2022-10-19T08:33:56.788Z,9.60
2022-10-19T08:34:58.477Z,10.85
2022-10-19T08:36:00.170Z,7.50
2022-10-19T08:37:10.122Z,6.38
2022-10-19T08:38:21.811Z,6.72
2022-10-19T08:39:23.809Z,5.45
2022-10-19T08:40:29.341Z,5.72
2022-10-19T08:41:56.892Z,4.88
2022-10-19T08:43:05.236Z,6.28
2022-10-19T08:44:20.687Z,4.78
2022-10-19T08:45:31.391Z,5.03
2022-10-19T08:46:50.920Z,4.18
2022-10-19T08:48:23.546Z,6.80
2022-10-19T08:49:28.389Z,5.65
2022-10-19T08:50:44.615Z,5.60
2022-10-19T08:51:51.259Z,4.63
2022-10-19T08:53:06.128Z,9.85
2022-10-19T08:54:16.353Z,4.07
2022-10-19T08:55:23.200Z,7.45
2022-10-19T08:58:15.413Z,8.25
2022-10-19T08:59:27.979Z,9.25
2022-10-19T09:00:35.734Z,3.93
2022-10-19T09:01:52.490Z,8.60
2022-10-19T09:03:23.147Z,8.73
2022-10-19T09:04:42.766Z,10.38
2022-10-19T09:06:05.200Z,5.63
2022-10-19T09:07:22.779Z,8.20
2022-10-19T09:08:24.575Z,9.48
2022-10-19T09:09:30.151Z,4.47
2022-10-19T09:10:38.865Z,7.07
2022-10-19T09:11:46.179Z,9.02
2022-10-19T09:12:53.903Z,7.80
2022-10-19T09:14:10.908Z,6.20
2022-10-19T09:15:18.888Z,7.97
2022-10-19T09:16:21.322Z,7.57
2022-10-19T09:17:25.168Z,12.50
2022-10-19T09:18:32.736Z,4.70
2022-10-19T09:19:34.427Z,10.32
2022-10-19T09:20:39.385Z,11.40
2022-10-19T09:21:47.746Z,7.75
2022-10-19T09:23:15.203Z,4.78
2022-10-19T09:24:29.922Z,4.80
2022-10-19T09:25:33.804Z,6.70
2022-10-19T09:26:54.234Z,5.95
2022-10-19T09:28:31.394Z,11.80
2022-10-19T09:29:44.373Z,4.65
2022-10-19T09:30:48.377Z,6.43
2022-10-19T09:31:55.047Z,10.15
2022-10-19T09:33:01.087Z,5.53
2022-10-19T09:34:07.630Z,6.57
2022-10-19T09:35:39.276Z,5.28
2022-10-19T09:36:50.687Z,4.43
2022-10-19T09:37:53.079Z,10.05
2022-10-19T09:38:54.805Z,5.22
2022-10-19T09:39:56.503Z,7.78
2022-10-19T09:41:05.696Z,9.52
2022-10-19T09:42:30.370Z,6.80
2022-10-19T09:43:32.287Z,3.10
2022-10-19T09:44:33.966Z,4.18
2022-10-19T09:45:45.012Z,3.30
2022-10-19T09:46:58.501Z,7.97
2022-10-19T09:48:08.674Z,8.73
2022-10-19T09:49:12.437Z,11.27
2022-10-19T09:50:22.971Z,9.85
2022-10-19T09:51:24.630Z,6.40
2022-10-19T09:52:38.691Z,3.80
2022-10-19T09:53:53.442Z,4.13
2022-10-19T09:55:05.135Z,8.13
2022-10-19T09:56:08.761Z,6.25
2022-10-19T09:57:21.112Z,6.60
2022-10-19T09:58:29.180Z,8.13
2022-10-19T09:59:36.635Z,4.80
2022-10-19T10:00:47.986Z,6.72
2022-10-19T10:02:19.007Z,5.82
2022-10-19T10:03:43.502Z,10.43
2022-10-19T10:04:57.463Z,4.75
2022-10-19T10:06:05.310Z,4.32
2022-10-19T10:07:10.997Z,4.50
2022-10-19T10:08:19.729Z,7.88
2022-10-19T10:09:28.727Z,5.05
2022-10-19T10:10:44.714Z,3.13
2022-10-19T10:11:49.551Z,7.60
2022-10-19T10:12:53.143Z,5.82
2022-10-19T10:13:57.609Z,5.80
2022-10-19T10:14:59.285Z,8.05
2022-10-19T10:16:03.403Z,4.25
2022-10-19T10:17:16.539Z,7.43
2022-10-19T10:18:19.292Z,8.32
2022-10-19T10:19:27.235Z,8.43
2022-10-19T10:20:32.331Z,11.40
2022-10-19T10:21:48.260Z,5.07
2022-10-19T10:22:57.366Z,8.20
2022-10-19T10:24:02.817Z,3.30
2022-10-19T10:25:16.605Z,4.32
2022-10-19T10:26:19.907Z,6.95
2022-10-19T10:27:34.301Z,11.27
2022-10-19T10:28:47.527Z,3.00
2022-10-19T10:31:06.108Z,4.63
2022-10-19T10:32:18.159Z,4.47
2022-10-19T10:33:40.441Z,3.50
2022-10-19T10:34:53.104Z,6.17
2022-10-19T10:36:03.420Z,9.18
2022-10-19T10:37:08.189Z,6.95
2022-10-19T10:38:23.299Z,7.03
2022-10-19T10:39:28.509Z,2.38
2022-10-19T10:40:31.298Z,7.50
2022-10-19T10:41:43.172Z,5.45
2022-10-19T10:42:47.493Z,8.88
2022-10-19T10:44:59.584Z,6.05
2022-10-19T10:46:14.901Z,3.37
2022-10-19T10:47:20.389Z,8.48
2022-10-19T10:48:30.302Z,5.65
2022-10-19T10:49:37.411Z,2.78
2022-10-19T10:50:39.069Z,3.08
2022-10-19T10:51:49.280Z,4.18
2022-10-19T10:53:02.299Z,2.17
2022-10-19T10:54:18.047Z,2.88
2022-10-19T10:55:19.776Z,4.53
2022-10-19T10:56:28.258Z,3.60
2022-10-19T10:57:37.985Z,8.73
2022-10-19T10:58:55.150Z,3.22
2022-10-19T11:00:02.715Z,3.50
2022-10-19T11:01:14.372Z,2.83
2022-10-19T11:02:35.009Z,3.35
2022-10-19T11:03:40.688Z,5.47
2022-10-19T11:04:52.211Z,2.60
2022-10-19T11:05:59.417Z,3.00
2022-10-19T11:07:17.659Z,3.50
2022-10-19T11:08:29.287Z,3.13
2022-10-19T11:09:43.004Z,1.70
2022-10-19T11:11:10.989Z,2.75
2022-10-19T11:12:21.767Z,3.80
2022-10-19T11:13:29.333Z,5.40
2022-10-19T11:14:48.699Z,7.32
2022-10-19T11:16:04.953Z,1.80
2022-10-19T11:17:12.242Z,5.70
2022-10-19T11:18:25.671Z,1.17
2022-10-19T11:19:40.463Z,3.92
2022-10-19T11:20:53.097Z,0.93
2022-10-19T11:22:10.194Z,1.80
2022-10-19T11:23:23.676Z,7.10
2022-10-19T11:24:35.723Z,1.05
2022-10-19T11:25:45.800Z,2.30
2022-10-19T11:27:22.150Z,1.58
2022-10-19T11:28:47.850Z,3.80
2022-10-19T11:30:07.726Z,6.13
2022-10-19T11:31:12.798Z,11.60
2022-10-19T11:32:26.228Z,3.28
2022-10-19T11:33:47.394Z,0.88
2022-10-19T11:35:16.116Z,2.53
2022-10-19T11:36:37.333Z,1.27
2022-10-19T11:38:17.621Z,5.57
2022-10-19T11:39:33.892Z,2.83
2022-10-19T11:40:54.238Z,1.30
2022-10-19T11:42:23.754Z,3.25
2022-10-19T11:43:34.414Z,2.83
2022-10-19T11:45:05.743Z,0.80
2022-10-19T11:46:52.187Z,2.33
2022-10-19T11:48:03.071Z,1.23
2022-10-19T11:49:29.480Z,0.93
2022-10-19T11:51:20.993Z,1.38
2022-10-19T11:52:52.803Z,0.98
2022-10-19T11:53:57.221Z,0.80
2022-10-19T11:55:13.261Z,0.85
2022-10-19T11:56:58.060Z,0.52
2022-10-19T11:58:34.440Z,2.00
2022-10-19T11:59:46.256Z,2.53
2022-10-19T12:01:01.064Z,0.47
2022-10-19T12:02:35.028Z,3.75
2022-10-19T12:03:52.301Z,2.50
2022-10-19T12:05:24.928Z,4.13
2022-10-19T12:06:57.799Z,2.95
2022-10-19T12:08:08.504Z,2.47
2022-10-19T12:09:17.384Z,2.13
2022-10-19T12:10:39.337Z,1.40
2022-10-19T12:12:07.874Z,2.70
2022-10-19T12:13:14.890Z,1.20
2022-10-19T12:14:22.410Z,1.40
2022-10-19T12:15:29.884Z,2.90
2022-10-19T12:16:43.043Z,1.27
2022-10-19T12:17:49.373Z,1.92
2022-10-19T12:18:55.530Z,0.95
2022-10-19T12:20:02.947Z,0.60
2022-10-19T12:21:35.456Z,1.67
2022-10-19T12:22:38.415Z,2.60
2022-10-19T12:23:44.154Z,1.20
2022-10-19T12:24:46.491Z,3.80
2022-10-19T12:25:49.305Z,0.93
2022-10-19T12:26:53.603Z,0.88
2022-10-19T12:27:56.863Z,2.53
2022-10-19T12:29:15.513Z,3.00
2022-10-19T12:30:22.599Z,2.40
2022-10-19T12:31:25.969Z,4.93
2022-10-19T12:32:29.526Z,1.40
2022-10-19T12:33:38.207Z,0.50
2022-10-19T12:35:27.119Z,0.75
2022-10-19T12:37:05.012Z,4.13
2022-10-19T12:38:27.998Z,0.52
2022-10-19T12:40:00.580Z,1.35
2022-10-19T12:41:33.642Z,0.87
2022-10-19T12:42:53.858Z,0.90
2022-10-19T12:44:13.866Z,0.73
2022-10-19T12:45:33.440Z,1.88
2022-10-19T12:46:42.948Z,3.35
2022-10-19T12:48:10.986Z,0.65
2022-10-19T12:49:30.954Z,1.85
2022-10-19T12:50:52.405Z,3.22
2022-10-19T12:51:58.909Z,1.95
2022-10-19T12:53:00.576Z,1.65
2022-10-19T12:54:10.003Z,0.67
2022-10-19T12:55:34.647Z,3.42
2022-10-19T12:56:48.668Z,0.52
2022-10-19T12:57:59.175Z,1.17
2022-10-19T12:59:01.908Z,1.70
2022-10-19T13:00:24.254Z,2.47
2022-10-19T13:01:44.286Z,7.00
2022-10-19T13:02:48.303Z,1.02
2022-10-19T13:04:05.468Z,5.25
2022-10-19T13:05:07.316Z,0.93
2022-10-19T13:06:22.900Z,0.90
2022-10-19T13:07:26.517Z,5.45
2022-10-19T13:08:39.618Z,1.60
2022-10-19T13:09:44.232Z,2.95
2022-10-19T13:11:04.199Z,4.32
2022-10-19T13:12:19.351Z,2.83
2022-10-19T13:13:57.869Z,0.90
2022-10-19T13:15:04.747Z,2.58
2022-10-19T13:16:26.327Z,3.00
2022-10-19T13:17:34.458Z,1.83
2022-10-19T13:19:01.367Z,2.20
2022-10-19T13:20:15.472Z,1.83
2022-10-19T13:21:43.499Z,1.63
2022-10-19T13:22:46.764Z,3.13
2022-10-19T13:23:49.123Z,0.85
2022-10-19T13:25:21.168Z,2.60
2022-10-19T13:26:34.111Z,0.63
2022-10-19T13:27:37.869Z,0.63
2022-10-19T13:28:51.635Z,1.70
2022-10-19T13:29:53.799Z,0.63
2022-10-19T13:31:00.476Z,1.43
2022-10-19T13:32:35.057Z,2.78
2022-10-19T13:33:44.421Z,2.38
2022-10-19T13:34:46.901Z,1.55
2022-10-19T13:35:49.130Z,1.55
2022-10-19T13:37:03.998Z,2.85
2022-10-19T13:38:18.284Z,2.10
2022-10-19T13:39:28.267Z,2.03
2022-10-19T13:40:38.488Z,1.27
2022-10-19T13:41:47.429Z,2.92
2022-10-19T13:42:58.330Z,1.37
2022-10-19T13:44:16.919Z,3.40
2022-10-19T13:45:25.090Z,1.35
2022-10-19T13:46:29.858Z,0.77
2022-10-19T13:47:42.686Z,1.13
2022-10-19T13:49:05.188Z,3.42
2022-10-19T13:50:16.969Z,2.72
2022-10-19T13:51:57.770Z,0.73
2022-10-19T13:53:20.845Z,0.55
2022-10-19T13:54:28.648Z,1.50
2022-10-19T13:55:47.262Z,0.53
2022-10-19T13:56:59.716Z,3.33
2022-10-19T13:58:07.433Z,5.97
2022-10-19T13:59:15.075Z,2.17
2022-10-19T14:00:22.288Z,2.97
2022-10-19T14:01:30.018Z,2.25
2022-10-19T14:02:43.858Z,1.17
2022-10-19T14:04:11.859Z,2.58
2022-10-19T14:05:51.179Z,3.90
2022-10-19T14:07:05.908Z,1.20
2022-10-19T14:08:24.162Z,1.43
2022-10-19T14:09:56.936Z,0.30
2022-10-19T14:11:05.359Z,2.90
2022-10-19T14:12:25.700Z,2.28
2022-10-19T14:13:27.462Z,0.30
2022-10-19T14:14:29.235Z,3.72
2022-10-19T14:15:33.857Z,1.95
2022-10-19T14:16:44.450Z,2.92
2022-10-19T14:17:46.275Z,3.92
2022-10-19T14:18:55.718Z,3.28
2022-10-19T14:19:59.213Z,0.73
2022-10-19T14:21:04.581Z,0.60
2022-10-19T14:22:24.482Z,1.27
2022-10-19T14:23:32.520Z,2.42
2022-10-19T14:24:36.002Z,0.77
2022-10-19T14:25:37.766Z,0.85
2022-10-19T14:26:39.443Z,0.55
2022-10-19T14:27:41.097Z,0.25
2022-10-19T14:28:43.165Z,1.67
2022-10-19T14:29:50.858Z,2.50
2022-10-19T14:31:05.331Z,1.13
2022-10-19T14:32:10.233Z,1.10
2022-10-19T14:33:15.233Z,1.63
2022-10-19T14:34:16.921Z,2.35
2022-10-19T14:35:33.843Z,2.90
2022-10-19T14:36:39.422Z,1.08
2022-10-19T14:37:43.686Z,1.35
2022-10-19T14:38:46.891Z,2.10
2022-10-19T14:40:05.423Z,2.20
2022-10-19T14:41:29.000Z,4.30
2022-10-19T14:42:46.801Z,5.07
2022-10-19T14:43:48.450Z,7.70
2022-10-19T14:44:50.629Z,3.88
2022-10-19T14:46:07.622Z,4.15
2022-10-19T14:47:24.284Z,2.88
2022-10-19T14:48:25.926Z,7.38
2022-10-19T14:49:27.740Z,6.18
2022-10-19T14:50:52.751Z,4.90
2022-10-19T14:52:00.132Z,5.88
2022-10-19T14:53:26.586Z,7.50
2022-10-19T14:54:44.762Z,3.40